Observation data for Friona on 02/22/2019      Previous  Date  Next       Current Mesonet Observations  Soil Data  Daily Summary Page  Observations in Plain Language
KFAS 220600Z 11008KT 03/M05 A2989 RMK A01 T00331054  RH  053%=      5-min Rain = 0
KFAS 220605Z 11008KT 03/M06 A2989 RMK A01 T00321055  RH  053%=      5-min Rain = 0
KFAS 220610Z 10007KT 03/M06 A2988 RMK A01 T00291055  RH  054%=      5-min Rain = 0
KFAS 220615Z 11008KT 03/M06 A2989 RMK A01 T00271056  RH  054%=      5-min Rain = 0
KFAS 220620Z 12008KT 03/M06 A2989 RMK A01 T00251057  RH  055%=      5-min Rain = 0
KFAS 220625Z 12008KT 02/M06 A2989 RMK A01 T00231057  RH  056%=      5-min Rain = 0
KFAS 220630Z 10009KT 02/M06 A2988 RMK A01 T00231056  RH  056%=      5-min Rain = 0
KFAS 220635Z 10009KT 02/M06 A2988 RMK A01 T00241056  RH  056%=      5-min Rain = 0
KFAS 220640Z 10008KT 02/M06 A2988 RMK A01 T00231055  RH  056%=      5-min Rain = 0
KFAS 220645Z 11008KT 02/M05 A2989 RMK A01 T00231054  RH  057%=      5-min Rain = 0
KFAS 220650Z 10007KT 02/M05 A2988 RMK A01 T00231053  RH  057%=      5-min Rain = 0
KFAS 220655Z 10008KT 02/M05 A2988 RMK A01 T00221053  RH  058%=      5-min Rain = 0
KFAS 220700Z 09008KT 02/M05 A2987 RMK A01 T00201053  RH  058%=      5-min Rain = 0
KFAS 220705Z 08007KT 02/M05 A2988 RMK A01 T00181052  RH  060%=      5-min Rain = 0
KFAS 220710Z 09005KT 02/M05 A2989 RMK A01 T00181050  RH  061%=      5-min Rain = 0
KFAS 220715Z 09005KT 02/M05 A2989 RMK A01 T00181049  RH  061%=      5-min Rain = 0
KFAS 220720Z 09007KT 02/M05 A2989 RMK A01 T00191048  RH  061%=      5-min Rain = 0
KFAS 220725Z 10007KT 02/M05 A2989 RMK A01 T00201047  RH  061%=      5-min Rain = 0
KFAS 220730Z 12006KT 02/M05 A2989 RMK A01 T00211047  RH  061%=      5-min Rain = 0
KFAS 220735Z 13010KT 02/M05 A2989 RMK A01 T00231046  RH  061%=      5-min Rain = 0
KFAS 220740Z 12010KT 03/M05 A2989 RMK A01 T00251045  RH  060%=      5-min Rain = 0
KFAS 220745Z 12011KT 03/M04 A2989 RMK A01 T00251044  RH  060%=      5-min Rain = 0
KFAS 220750Z 12011KT 03/M04 A2989 RMK A01 T00251044  RH  061%=      5-min Rain = 0
KFAS 220755Z 12010KT 02/M04 A2989 RMK A01 T00231044  RH  061%=      5-min Rain = 0
KFAS 220800Z 12010KT 02/M04 A2989 RMK A01 T00211044  RH  063%=      5-min Rain = 0
KFAS 220805Z 11010KT 02/M04 A2988 RMK A01 T00181043  RH  064%=      5-min Rain = 0
KFAS 220810Z 11009KT 02/M04 A2989 RMK A01 T00171043  RH  065%=      5-min Rain = 0
KFAS 220815Z 10009KT 02/M04 A2988 RMK A01 T00151042  RH  066%=      5-min Rain = 0
KFAS 220820Z 10010KT 01/M04 A2988 RMK A01 T00141042  RH  067%=      5-min Rain = 0
KFAS 220825Z 09010KT 01/M04 A2988 RMK A01 T00141042  RH  067%=      5-min Rain = 0
KFAS 220830Z 09010KT 01/M04 A2988 RMK A01 T00131041  RH  067%=      5-min Rain = 0
KFAS 220835Z 09010KT 01/M04 A2988 RMK A01 T00131041  RH  068%=      5-min Rain = 0
KFAS 220840Z 09009KT 01/M04 A2988 RMK A01 T00121040  RH  069%=      5-min Rain = 0
KFAS 220845Z 10008KT 01/M04 A2989 RMK A01 T00111040  RH  069%=      5-min Rain = 0
KFAS 220850Z 10009KT 01/M04 A2989 RMK A01 T00091040  RH  070%=      5-min Rain = 0
KFAS 220855Z 09008KT 01/M04 A2989 RMK A01 T00081040  RH  071%=      5-min Rain = 0
KFAS 220900Z 10008KT 01/M04 A299 RMK A01 T00071040  RH  071%=      5-min Rain = 0
KFAS 220905Z 10007KT 01/M04 A299 RMK A01 T00061039  RH  072%=      5-min Rain = 0
KFAS 220910Z 11007KT 01/M04 A2989 RMK A01 T00061040  RH  072%=      5-min Rain = 0
KFAS 220915Z 11006KT 01/M04 A2989 RMK A01 T00051039  RH  072%=      5-min Rain = 0
KFAS 220920Z 11006KT 01/M04 A2989 RMK A01 T00051040  RH  072%=      5-min Rain = 0
KFAS 220925Z 11005KT 00/M04 A2989 RMK A01 T00031041  RH  072%=      5-min Rain = 0
KFAS 220930Z 12006KT 00/M04 A2989 RMK A01 T00021041  RH  073%=      5-min Rain = 0
KFAS 220935Z 12008KT 00/M04 A2988 RMK A01 T00021041  RH  073%=      5-min Rain = 0
KFAS 220940Z 13010KT 00/M04 A2988 RMK A01 T00041038  RH  074%=      5-min Rain = 0
KFAS 220945Z 12012KT 01/M03 A2988 RMK A01 T00061034  RH  075%=      5-min Rain = 0
KFAS 220950Z 12010KT 01/M03 A2988 RMK A01 T00061034  RH  075%=      5-min Rain = 0
KFAS 220955Z 12010KT 00/M04 A2988 RMK A01 T00031036  RH  076%=      5-min Rain = 0
KFAS 221000Z 12009KT 00/M04 A2988 RMK A01 T00011036  RH  077%=      5-min Rain = 0
KFAS 221005Z 12007KT M00/M04 A2988 RMK A01 T10021037  RH  078%=      5-min Rain = 0
KFAS 221010Z 11006KT M00/M04 A2988 RMK A01 T10031036  RH  078%=      5-min Rain = 0
KFAS 221015Z 10004KT M01/M04 A2988 RMK A01 T10061039  RH  079%=      5-min Rain = 0
KFAS 221020Z 10003KT M01/M04 A2988 RMK A01 T10091040  RH  080%=      5-min Rain = 0
KFAS 221025Z 11005KT M01/M04 A2988 RMK A01 T10101040  RH  081%=      5-min Rain = 0
KFAS 221030Z 12006KT M01/M04 A2988 RMK A01 T10121041  RH  081%=      5-min Rain = 0
KFAS 221035Z 12007KT M01/M04 A2988 RMK A01 T10141042  RH  082%=      5-min Rain = 0
KFAS 221040Z 12007KT M02/M04 A2987 RMK A01 T10161042  RH  082%=      5-min Rain = 0
KFAS 221045Z 11006KT M02/M04 A2987 RMK A01 T10171043  RH  083%=      5-min Rain = 0
KFAS 221050Z 11004KT M02/M04 A2987 RMK A01 T10181044  RH  083%=      5-min Rain = 0
KFAS 221055Z 09004KT M02/M05 A2987 RMK A01 T10211045  RH  083%=      5-min Rain = 0
KFAS 221100Z 08004KT M02/M05 A2987 RMK A01 T10231047  RH  084%=      5-min Rain = 0
KFAS 221105Z 08004KT M03/M05 A2987 RMK A01 T10261049  RH  084%=      5-min Rain = 0
KFAS 221110Z 07005KT M03/M05 A2987 RMK A01 T10291050  RH  085%=      5-min Rain = 0
KFAS 221115Z 05005KT M03/M05 A2987 RMK A01 T10331054  RH  086%=      5-min Rain = 0
KFAS 221120Z 06005KT M04/M06 A2987 RMK A01 T10371055  RH  087%=      5-min Rain = 0
KFAS 221125Z 08005KT M04/M05 A2987 RMK A01 T10371053  RH  089%=      5-min Rain = 0
KFAS 221130Z 07005KT M04/M06 A2987 RMK A01 T10391055  RH  089%=      5-min Rain = 0
KFAS 221135Z 04005KT M04/M06 A2987 RMK A01 T10431061  RH  088%=      5-min Rain = 0
KFAS 221140Z 05005KT M05/M06 A2987 RMK A01 T10481063  RH  089%=      5-min Rain = 0
KFAS 221145Z 06005KT M05/M06 A2987 RMK A01 T10451057  RH  091%=      5-min Rain = 0
KFAS 221150Z 05005KT M04/M06 A2987 RMK A01 T10441057  RH  090%=      5-min Rain = 0
KFAS 221155Z 05004KT M05/M06 A2988 RMK A01 T10481062  RH  090%=      5-min Rain = 0
KFAS 221200Z 07003KT M05/M06 A2988 RMK A01 T10461058  RH  092%=      5-min Rain = 0
KFAS 221205Z 06003KT M04/M05 A2988 RMK A01 T10401050  RH  093%=      5-min Rain = 0
KFAS 221210Z 03002KT M04/M05 A2988 RMK A01 T10381049  RH  092%=      5-min Rain = 0
KFAS 221215Z 01002KT M04/M05 A2989 RMK A01 T10381049  RH  092%=      5-min Rain = 0
KFAS 221220Z 35002KT M04/M05 A2989 RMK A01 T10351046  RH  092%=      5-min Rain = 0
KFAS 221225Z 01002KT M03/M04 A2989 RMK A01 T10321043  RH  093%=      5-min Rain = 0
KFAS 221230Z 05001KT M03/M04 A2989 RMK A01 T10311042  RH  092%=      5-min Rain = 0
KFAS 221235Z 33002KT M03/M04 A299 RMK A01 T10291041  RH  092%=      5-min Rain = 0
KFAS 221240Z 33000KT M03/M04 A2989 RMK A01 T10281040  RH  092%=      5-min Rain = 0
KFAS 221245Z 31003KT M03/M04 A299 RMK A01 T10271039  RH  092%=      5-min Rain = 0
KFAS 221250Z 29001KT M03/M04 A299 RMK A01 T10261039  RH  091%=      5-min Rain = 0
KFAS 221255Z 26001KT M02/M04 A299 RMK A01 T10241037  RH  091%=      5-min Rain = 0
KFAS 221300Z 25001KT M02/M04 A299 RMK A01 T10231036  RH  091%=      5-min Rain = 0
KFAS 221305Z 17001KT M02/M04 A299 RMK A01 T10221035  RH  091%=      5-min Rain = 0
KFAS 221310Z 15002KT M02/M03 A299 RMK A01 T10211034  RH  091%=      5-min Rain = 0
KFAS 221315Z 13001KT M02/M03 A299 RMK A01 T10201033  RH  091%=      5-min Rain = 0
KFAS 221320Z 16001KT M02/M03 A299 RMK A01 T10191032  RH  091%=      5-min Rain = 0
KFAS 221325Z 12001KT M02/M03 A2991 RMK A01 T10171030  RH  092%=      5-min Rain = 0
KFAS 221330Z 31002KT M02/M03 A2991 RMK A01 T10161029  RH  091%=      5-min Rain = 0
KFAS 221335Z 29001KT M02/M03 A2991 RMK A01 T10161030  RH  091%=      5-min Rain = 0
KFAS 221340Z 16002KT M02/M03 A2991 RMK A01 T10151029  RH  091%=      5-min Rain = 0
KFAS 221345Z 17002KT M01/M02 A2992 RMK A01 T10101022  RH  092%=      5-min Rain = 0
KFAS 221350Z 14003KT M01/M02 A2992 RMK A01 T10061018  RH  093%=      5-min Rain = 0
KFAS 221355Z 15005KT M00/M02 A2992 RMK A01 T10041015  RH  093%=      5-min Rain = 0
KFAS 221400Z 14005KT M00/M01 A2992 RMK A01 T10031014  RH  093%=      5-min Rain = 0
KFAS 221405Z 14006KT M00/M01 A2992 RMK A01 T10031013  RH  094%=      5-min Rain = 0
KFAS 221410Z 14006KT M00/M01 A2992 RMK A01 T10021012  RH  094%=      5-min Rain = 0
KFAS 221415Z 14006KT M00/M01 A2993 RMK A01 T10021011  RH  095%=      5-min Rain = 0
KFAS 221420Z 14005KT M00/M01 A2993 RMK A01 T10021010  RH  095%=      5-min Rain = 0
KFAS 221425Z 14006KT M00/M01 A2993 RMK A01 T10011009  RH  095%=      5-min Rain = 0
KFAS 221430Z 14006KT M00/M01 A2993 RMK A01 T10011008  RH  096%=      5-min Rain = 0
KFAS 221435Z 14007KT 00/01 A2993 RMK A01 T00-000-7  RH  096%=      5-min Rain = 0
KFAS 221440Z 15008KT 00/M01 A2993 RMK A01 T00011006  RH  096%=      5-min Rain = 0
KFAS 221445Z 15007KT 00/M01 A2994 RMK A01 T00021005  RH  096%=      5-min Rain = 0
KFAS 221450Z 15007KT 00/M00 A2994 RMK A01 T00031003  RH  097%=      5-min Rain = 0
KFAS 221455Z 15008KT 00/M00 A2994 RMK A01 T00031003  RH  097%=      5-min Rain = 0
KFAS 221500Z 15010KT 00/M00 A2994 RMK A01 T00041002  RH  097%=      5-min Rain = 0
KFAS 221505Z 15010KT 01/M00 A2994 RMK A01 T00051001  RH  097%=      5-min Rain = 0
KFAS 221510Z 16008KT 01/00 A2994 RMK A01 T00070002  RH  098%=      5-min Rain = 0
KFAS 221515Z 15008KT 01/00 A2995 RMK A01 T00080003  RH  098%=      5-min Rain = 0
KFAS 221520Z 14009KT 01/00 A2995 RMK A01 T00080003  RH  098%=      5-min Rain = 0
KFAS 221525Z 14009KT 01/00 A2995 RMK A01 T00090004  RH  098%=      5-min Rain = 0
KFAS 221530Z 15009KT 01/01 A2995 RMK A01 T00100006  RH  098%=      5-min Rain = 0
KFAS 221535Z 15010KT 01/01 A2995 RMK A01 T00110006  RH  098%=      5-min Rain = 0
KFAS 221540Z 15009KT 01/01 A2995 RMK A01 T00120008  RH  098%=      5-min Rain = 0
KFAS 221545Z 15009KT 01/01 A2995 RMK A01 T00130008  RH  098%=      5-min Rain = 0
KFAS 221550Z 15008KT 01/01 A2995 RMK A01 T00140010  RH  098%=      5-min Rain = 0
KFAS 221555Z 16009KT 02/01 A2995 RMK A01 T00150011  RH  098%=      5-min Rain = 0
KFAS 221600Z 15009KT 02/01 A2995 RMK A01 T00160012  RH  098%=      5-min Rain = 0
KFAS 221605Z 15009KT 02/01 A2995 RMK A01 T00180013  RH  098%=      5-min Rain = 0
KFAS 221610Z 15010KT 02/01 A2994 RMK A01 T00180014  RH  098%=      5-min Rain = 0
KFAS 221615Z 16011KT 02/02 A2994 RMK A01 T00200015  RH  098%=      5-min Rain = 0
KFAS 221620Z 16011KT 02/02 A2994 RMK A01 T00210017  RH  098%=      5-min Rain = 0
KFAS 221625Z 15010KT 02/02 A2994 RMK A01 T00230018  RH  098%=      5-min Rain = 0
KFAS 221630Z 15010KT 02/02 A2994 RMK A01 T00230017  RH  098%=      5-min Rain = 0
KFAS 221635Z 16011KT 02/02 A2994 RMK A01 T00240018  RH  097%=      5-min Rain = 0
KFAS 221640Z 15011KT 03/02 A2993 RMK A01 T00250017  RH  096%=      5-min Rain = 0
KFAS 221645Z 16010KT 03/02 A2994 RMK A01 T00280020  RH  096%=      5-min Rain = 0
KFAS 221650Z 16011KT 03/02 A2994 RMK A01 T00300018  RH  094%=      5-min Rain = 0
KFAS 221655Z 15011KT 03/02 A2993 RMK A01 T00320018  RH  092%=      5-min Rain = 0
KFAS 221700Z 15011KT 04/02 A2993 RMK A01 T00350017  RH  090%=      5-min Rain = 0
KFAS 221705Z 17011KT 04/02 A2993 RMK A01 T00370017  RH  088%=      5-min Rain = 0
KFAS 221710Z 16010KT 04/02 A2993 RMK A01 T00400016  RH  086%=      5-min Rain = 0
KFAS 221715Z 16010KT 04/02 A2993 RMK A01 T00440018  RH  085%=      5-min Rain = 0
KFAS 221720Z 15011KT 05/02 A2992 RMK A01 T00470018  RH  083%=      5-min Rain = 0
KFAS 221725Z 15012KT 05/02 A2993 RMK A01 T00490018  RH  082%=      5-min Rain = 0
KFAS 221730Z 16012KT 05/02 A2992 RMK A01 T00490018  RH  082%=      5-min Rain = 0
KFAS 221735Z 16012KT 05/02 A2992 RMK A01 T00510019  RH  081%=      5-min Rain = 0
KFAS 221740Z 16013KT 05/02 A2992 RMK A01 T00530019  RH  080%=      5-min Rain = 0
KFAS 221745Z 16012KT 05/02 A2992 RMK A01 T00540019  RH  079%=      5-min Rain = 0
KFAS 221750Z 15012KT 06/02 A2992 RMK A01 T00580021  RH  078%=      5-min Rain = 0
KFAS 221755Z 16012KT 06/02 A2992 RMK A01 T00600021  RH  077%=      5-min Rain = 0
KFAS 221800Z 15012KT 06/02 A2991 RMK A01 T00640022  RH  076%=      5-min Rain = 0
KFAS 221805Z 16011KT 07/02 A2991 RMK A01 T00660021  RH  074%=      5-min Rain = 0
KFAS 221810Z 16011KT 07/02 A2991 RMK A01 T00660021  RH  074%=      5-min Rain = 0
KFAS 221815Z 16011KT 07/02 A2991 RMK A01 T00680022  RH  074%=      5-min Rain = 0
KFAS 221820Z 16011G16KT 07/02 A2991 RMK A01 T00720023  RH  072%=      5-min Rain = 0
KFAS 221825Z 16011G16KT 07/02 A299 RMK A01 T00730021  RH  071%=      5-min Rain = 0
KFAS 221830Z 16012G19KT 08/02 A299 RMK A01 T00750023  RH  071%=      5-min Rain = 0
KFAS 221835Z 17011KT 08/02 A299 RMK A01 T00780023  RH  069%=      5-min Rain = 0
KFAS 221840Z 17011G16KT 08/02 A2989 RMK A01 T00770022  RH  069%=      5-min Rain = 0
KFAS 221845Z 17011KT 08/02 A2989 RMK A01 T00800023  RH  068%=      5-min Rain = 0
KFAS 221850Z 16011G16KT 08/02 A2989 RMK A01 T00830024  RH  068%=      5-min Rain = 0
KFAS 221855Z 17010KT 09/02 A2989 RMK A01 T00870024  RH  066%=      5-min Rain = 0
KFAS 221900Z 17010G15KT 09/03 A2988 RMK A01 T00890025  RH  065%=      5-min Rain = 0
KFAS 221905Z 17010G15KT 09/03 A2988 RMK A01 T00920025  RH  064%=      5-min Rain = 0
KFAS 221910Z 17011KT 09/02 A2987 RMK A01 T00910023  RH  063%=      5-min Rain = 0
KFAS 221915Z 16011G17KT 09/02 A2986 RMK A01 T00920024  RH  063%=      5-min Rain = 0
KFAS 221920Z 16010KT 10/02 A2986 RMK A01 T00960024  RH  062%=      5-min Rain = 0
KFAS 221925Z 16011G16KT 10/02 A2986 RMK A01 T00960021  RH  061%=      5-min Rain = 0
KFAS 221930Z 15012G19KT 10/02 A2985 RMK A01 T00980023  RH  060%=      5-min Rain = 0
KFAS 221935Z 16010KT 10/02 A2985 RMK A01 T01000022  RH  059%=      5-min Rain = 0
KFAS 221940Z 16010KT 10/02 A2985 RMK A01 T01000020  RH  058%=      5-min Rain = 0
KFAS 221945Z 17011KT 11/02 A2984 RMK A01 T01050018  RH  056%=      5-min Rain = 0
KFAS 221950Z 17010KT 11/02 A2984 RMK A01 T01070018  RH  055%=      5-min Rain = 0
KFAS 221955Z 17010KT 11/02 A2983 RMK A01 T01090019  RH  055%=      5-min Rain = 0
KFAS 222000Z 15010KT 11/02 A2983 RMK A01 T01140022  RH  054%=      5-min Rain = 0
KFAS 222005Z 15011KT 12/02 A2982 RMK A01 T01150019  RH  052%=      5-min Rain = 0
KFAS 222010Z 15010KT 12/02 A2982 RMK A01 T01170020  RH  052%=      5-min Rain = 0
KFAS 222015Z 15011KT 12/02 A2981 RMK A01 T01170020  RH  052%=      5-min Rain = 0
KFAS 222020Z 16010G15KT 12/02 A2981 RMK A01 T01210016  RH  049%=      5-min Rain = 0
KFAS 222025Z 16009KT 12/01 A2981 RMK A01 T01240013  RH  048%=      5-min Rain = 0
KFAS 222030Z 16010KT 12/02 A298 RMK A01 T01230015  RH  048%=      5-min Rain = 0
KFAS 222035Z 16010KT 12/01 A298 RMK A01 T01230011  RH  047%=      5-min Rain = 0
KFAS 222040Z 15010G15KT 12/01 A298 RMK A01 T01230012  RH  047%=      5-min Rain = 0
KFAS 222045Z 16010KT 13/01 A298 RMK A01 T01260012  RH  046%=      5-min Rain = 0
KFAS 222050Z 15011KT 13/01 A298 RMK A01 T01260008  RH  045%=      5-min Rain = 0
KFAS 222055Z 15011G18KT 13/01 A298 RMK A01 T01280009  RH  045%=      5-min Rain = 0
KFAS 222100Z 16011KT 13/01 A2979 RMK A01 T01310006  RH  043%=      5-min Rain = 0
KFAS 222105Z 16010G15KT 13/00 A2979 RMK A01 T01310002  RH  042%=      5-min Rain = 0
KFAS 222110Z 16011KT 13/M00 A2979 RMK A01 T01321003  RH  040%=      5-min Rain = 0
KFAS 222115Z 15010KT 13/01 A2978 RMK A01 T01340007  RH  042%=      5-min Rain = 0
KFAS 222120Z 15012G18KT 14/01 A2978 RMK A01 T01360008  RH  042%=      5-min Rain = 0
KFAS 222125Z 16010G15KT 14/M00 A2978 RMK A01 T01361001  RH  039%=      5-min Rain = 0
KFAS 222130Z 15011G16KT 14/00 A2978 RMK A01 T01400001  RH  039%=      5-min Rain = 0
KFAS 222135Z 15011G16KT 14/00 A2978 RMK A01 T01390003  RH  040%=      5-min Rain = 0
KFAS 222140Z 15012KT 14/M01 A2978 RMK A01 T01381010  RH  036%=      5-min Rain = 0
KFAS 222145Z 17010G15KT 14/M01 A2978 RMK A01 T01421010  RH  035%=      5-min Rain = 0
KFAS 222150Z 16011G16KT 14/M01 A2977 RMK A01 T01421009  RH  036%=      5-min Rain = 0
KFAS 222155Z 15013G18KT 14/M01 A2977 RMK A01 T01441008  RH  036%=      5-min Rain = 0
KFAS 222200Z 15013KT 14/M01 A2977 RMK A01 T01401009  RH  036%=      5-min Rain = 0
KFAS 222205Z 16013G18KT 14/M01 A2977 RMK A01 T01421010  RH  036%=      5-min Rain = 0
KFAS 222210Z 17012G17KT 14/M01 A2977 RMK A01 T01431011  RH  035%=      5-min Rain = 0
KFAS 222215Z 18010KT 14/M01 A2978 RMK A01 T01431010  RH  035%=      5-min Rain = 0
KFAS 222220Z 17013KT 14/M01 A2977 RMK A01 T01431008  RH  036%=      5-min Rain = 0
KFAS 222225Z 16011KT 15/M01 A2977 RMK A01 T01451005  RH  036%=      5-min Rain = 0
KFAS 222230Z 17013G20KT 15/M00 A2977 RMK A01 T01461004  RH  036%=      5-min Rain = 0
KFAS 222235Z 17014G20KT 14/M01 A2977 RMK A01 T01441005  RH  036%=      5-min Rain = 0
KFAS 222240Z 17014KT 14/M00 A2977 RMK A01 T01431002  RH  037%=      5-min Rain = 0
KFAS 222245Z 16013G20KT 14/M00 A2977 RMK A01 T01431001  RH  038%=      5-min Rain = 0
KFAS 222250Z 15014KT 14/M00 A2977 RMK A01 T01441003  RH  037%=      5-min Rain = 0
KFAS 222255Z 15015KT 14/M00 A2976 RMK A01 T01431003  RH  037%=      5-min Rain = 0
KFAS 222300Z 15015KT 14/M00 A2976 RMK A01 T01421004  RH  037%=      5-min Rain = 0
KFAS 222305Z 15015KT 14/M00 A2976 RMK A01 T01421002  RH  038%=      5-min Rain = 0
KFAS 222310Z 14014KT 14/00 A2975 RMK A01 T01420000  RH  038%=      5-min Rain = 0
KFAS 222315Z 14015KT 14/00 A2975 RMK A01 T01410001  RH  039%=      5-min Rain = 0
KFAS 222320Z 14014KT 14/M01 A2975 RMK A01 T01421005  RH  037%=      5-min Rain = 0
KFAS 222325Z 14014KT 14/M00 A2975 RMK A01 T01421003  RH  037%=      5-min Rain = 0
KFAS 222330Z 15015KT 14/M01 A2975 RMK A01 T01411008  RH  036%=      5-min Rain = 0
KFAS 222335Z 14015KT 14/M01 A2975 RMK A01 T01401010  RH  036%=      5-min Rain = 0
KFAS 222340Z 14016KT 14/M01 A2975 RMK A01 T01381012  RH  036%=      5-min Rain = 0
KFAS 222345Z 15014G19KT 14/M01 A2975 RMK A01 T01371011  RH  036%=      5-min Rain = 0
KFAS 222350Z 15014KT 14/M01 A2975 RMK A01 T01351010  RH  037%=      5-min Rain = 0
KFAS 222355Z 15014G20KT 13/M01 A2974 RMK A01 T01311008  RH  039%=      5-min Rain = 0
KFAS 230000Z 15014G19KT 13/M01 A2974 RMK A01 T01321009  RH  038%=      5-min Rain = 0
KFAS 230005Z 15016KT 13/M01 A2974 RMK A01 T01321010  RH  038%=      5-min Rain = 0
KFAS 230010Z 15016G21KT 13/M01 A2974 RMK A01 T01301010  RH  038%=      5-min Rain = 0
KFAS 230015Z 14015KT 13/M01 A2974 RMK A01 T01291010  RH  039%=      5-min Rain = 0
KFAS 230020Z 14014KT 13/M01 A2974 RMK A01 T01261007  RH  040%=      5-min Rain = 0
KFAS 230025Z 14015KT 12/01 A2974 RMK A01 T01210008  RH  047%=      5-min Rain = 0
KFAS 230030Z 14014KT 12/01 A2974 RMK A01 T01160011  RH  049%=      5-min Rain = 0
KFAS 230035Z 13014KT 11/01 A2974 RMK A01 T01120011  RH  050%=      5-min Rain = 0
KFAS 230040Z 13016G23KT 11/01 A2974 RMK A01 T01080012  RH  052%=      5-min Rain = 0
KFAS 230045Z 13017G22KT 11/01 A2974 RMK A01 T01070014  RH  053%=      5-min Rain = 0
KFAS 230050Z 13018KT 11/02 A2974 RMK A01 T01050015  RH  054%=      5-min Rain = 0
KFAS 230055Z 13017KT 10/02 A2974 RMK A01 T01020015  RH  056%=      5-min Rain = 0
KFAS 230100Z 13018KT 10/02 A2974 RMK A01 T00990016  RH  057%=      5-min Rain = 0
KFAS 230105Z 13018KT 10/02 A2973 RMK A01 T00970018  RH  059%=      5-min Rain = 0
KFAS 230110Z 13018G23KT 10/02 A2973 RMK A01 T00950018  RH  059%=      5-min Rain = 0
KFAS 230115Z 13019KT 09/02 A2973 RMK A01 T00930018  RH  060%=      5-min Rain = 0
KFAS 230120Z 13018G23KT 09/02 A2972 RMK A01 T00910018  RH  061%=      5-min Rain = 0
KFAS 230125Z 13019G26KT 09/02 A2972 RMK A01 T00890020  RH  063%=      5-min Rain = 0
KFAS 230130Z 13020G25KT 09/03 A2972 RMK A01 T00860026  RH  067%=      5-min Rain = 0
KFAS 230135Z 13019KT 08/03 A2972 RMK A01 T00830027  RH  069%=      5-min Rain = 0
KFAS 230140Z 13017KT 08/03 A2972 RMK A01 T00790025  RH  070%=      5-min Rain = 0
KFAS 230145Z 13018G23KT 08/03 A2972 RMK A01 T00770027  RH  072%=      5-min Rain = 0
KFAS 230150Z 13018KT 08/03 A2972 RMK A01 T00750028  RH  074%=      5-min Rain = 0
KFAS 230155Z 13017G22KT 07/03 A2972 RMK A01 T00730029  RH  075%=      5-min Rain = 0
KFAS 230200Z 13016KT 07/03 A2972 RMK A01 T00700028  RH  076%=      5-min Rain = 0
KFAS 230205Z 12015KT 07/03 A2972 RMK A01 T00670027  RH  077%=      5-min Rain = 0
KFAS 230210Z 12015KT 06/03 A2972 RMK A01 T00640026  RH  078%=      5-min Rain = 0
KFAS 230215Z 12016KT 06/03 A2972 RMK A01 T00620026  RH  079%=      5-min Rain = 0
KFAS 230220Z 11014G20KT 06/02 A2972 RMK A01 T00590024  RH  080%=      5-min Rain = 0
KFAS 230225Z 11014G20KT 06/02 A2972 RMK A01 T00560024  RH  081%=      5-min Rain = 0
KFAS 230230Z 11015G20KT 05/02 A2972 RMK A01 T00540023  RH  082%=      5-min Rain = 0
KFAS 230235Z 11015KT 05/02 A2972 RMK A01 T00520023  RH  083%=      5-min Rain = 0
KFAS 230240Z 11015KT 05/02 A2972 RMK A01 T00500023  RH  084%=      5-min Rain = 0
KFAS 230245Z 11016G21KT 05/02 A2972 RMK A01 T00490023  RH  085%=      5-min Rain = 0
KFAS 230250Z 12015G20KT 05/02 A2972 RMK A01 T00470023  RH  085%=      5-min Rain = 0
KFAS 230255Z 12016G21KT 05/02 A2972 RMK A01 T00460023  RH  086%=      5-min Rain = 0
KFAS 230300Z 12018KT 05/02 A2972 RMK A01 T00460024  RH  088%=      5-min Rain = 0
KFAS 230305Z 12014KT 04/02 A2971 RMK A01 T00440024  RH  088%=      5-min Rain = 0
KFAS 230310Z 11012KT 04/02 A2971 RMK A01 T00410022  RH  088%=      5-min Rain = 0
KFAS 230315Z 12012KT 04/02 A2972 RMK A01 T00390021  RH  089%=      5-min Rain = 0
KFAS 230320Z 12015G22KT 04/02 A2972 RMK A01 T00380021  RH  090%=      5-min Rain = 0
KFAS 230325Z 12018KT 04/02 A2972 RMK A01 T00390023  RH  091%=      5-min Rain = 0
KFAS 230330Z 12018G23KT 04/02 A2972 RMK A01 T00380023  RH  092%=      5-min Rain = 0
KFAS 230335Z 12020G28KT 04/02 A2973 RMK A01 T00380024  RH  092%=      5-min Rain = 0
KFAS 230340Z 13021G29KT 04/03 A2974 RMK A01 T00390025  RH  092%=      5-min Rain = 0
KFAS 230345Z 13023G28KT 04/02 A2974 RMK A01 T00390024  RH  092%=      5-min Rain = 0
KFAS 230350Z 13021G26KT 04/02 A2974 RMK A01 T00380024  RH  092%=      5-min Rain = 0
KFAS 230355Z 13020G25KT 04/03 A2974 RMK A01 T00380025  RH  093%=      5-min Rain = 0
KFAS 230400Z 13015KT 04/03 A2974 RMK A01 T00390025  RH  092%=      5-min Rain = 0
KFAS 230405Z 13018KT 04/02 A2974 RMK A01 T00390024  RH  092%=      5-min Rain = 0
KFAS 230410Z 13022KT 04/02 A2974 RMK A01 T00380024  RH  092%=      5-min Rain = 0
KFAS 230415Z 13019G24KT 04/02 A2974 RMK A01 T00370024  RH  092%=      5-min Rain = 0
KFAS 230420Z 13019G27KT 04/03 A2974 RMK A01 T00380025  RH  092%=      5-min Rain = 0
KFAS 230425Z 13022G28KT 04/03 A2974 RMK A01 T00390025  RH  092%=      5-min Rain = 0
KFAS 230430Z 13021KT 04/03 A2973 RMK A01 T00390026  RH  093%=      5-min Rain = 0
KFAS 230435Z 13019G24KT 04/03 A2973 RMK A01 T00390026  RH  093%=      5-min Rain = 0
KFAS 230440Z 13017G22KT 04/03 A2972 RMK A01 T00390027  RH  093%=      5-min Rain = 0
KFAS 230445Z 12015G21KT 04/03 A2972 RMK A01 T00400028  RH  093%=      5-min Rain = 0
KFAS 230450Z 12014KT 04/03 A2971 RMK A01 T00400028  RH  093%=      5-min Rain = 0
KFAS 230455Z 12012KT 04/03 A2971 RMK A01 T00410028  RH  093%=      5-min Rain = 0
KFAS 230500Z 13011KT 04/03 A2971 RMK A01 T00410028  RH  093%=      5-min Rain = 0
KFAS 230505Z 13011KT 04/03 A2972 RMK A01 T00420029  RH  093%=      5-min Rain = 0
KFAS 230510Z 13012G17KT 04/03 A2972 RMK A01 T00430031  RH  093%=      5-min Rain = 0
KFAS 230515Z 13014G19KT 05/03 A2971 RMK A01 T00460033  RH  093%=      5-min Rain = 0
KFAS 230520Z 13015KT 05/04 A2971 RMK A01 T00480036  RH  094%=      5-min Rain = 0
KFAS 230525Z 13016KT 05/04 A297 RMK A01 T00490038  RH  094%=      5-min Rain = 0
KFAS 230530Z 13015KT 05/04 A297 RMK A01 T00490039  RH  095%=      5-min Rain = 0
KFAS 230535Z 13016KT 05/04 A2971 RMK A01 T00480038  RH  095%=      5-min Rain = 0
KFAS 230540Z 14016KT 05/04 A2971 RMK A01 T00460037  RH  095%=      5-min Rain = 0
KFAS 230545Z 14016KT 05/04 A2971 RMK A01 T00450037  RH  096%=      5-min Rain = 0.01
KFAS 230550Z 14014KT 05/04 A2971 RMK A01 T00450037  RH  097%=      5-min Rain = 0.01
KFAS 230555Z 15014KT 04/04 A2971 RMK A01 T00440037  RH  097%=      5-min Rain = 0.01

Page generated in 0.0097 seconds.